Terminal Aerodrome Forecast
Issued by NWS Pendleton, OR

Home | Current Version | Previous Version | Text Only | Print | Product List | Glossary On
Versions: 1 2 3 4 5 6 7 8 9 10 11 12
846
FTUS46 KPDT 301736
TAFPDT
TAF
KPDT 301736Z 3018/0118 30010KT P6SM SCT250
     FM010100 25010KT P6SM BKN100 BKN250
     FM010800 22011KT P6SM SCT070 BKN100
     FM011200 20008KT P6SM SCT070 BKN100=

USA.gov is the U.S. government's official web portal to all federal, state and local government web resources and services.